Архив погоды в Бухте Амбарчик

Метеограмма Бухта Амбарчик
Вторник, 14 Августа
Время местн. Темп Ветер Видим Явления Облачность нижн/средн/верх Атм. давл. Влжн Точка росы ВНГО R Сост. почвы Tg s
Напр Скр Прв ур.ст ур.м изм
20:00 +10.2° З 3 4 20 км - преимущественно облачно 766 768 0 65% +3.9° 1 км 0 - - -
17:00 +12.8° С 1 - 20 км - облачно с прояснениями 766 767 -0.2 45% +1.1° более 2.5 км - - - -
14:00 +10.7° С-В 1 3 20 км - переменная облачность 766 768 +0.2 63% +3.9° более 2.5 км - - - -
11:00 +6.8° В,С-В 2 - 20 км - облачно с прояснениями 766 768 +0.3 78% +3.3° более 2.5 км - - - -
00:00 - - - - - - - - - - - - - - - - - -
05:00 +0.3° В 4 6 20 км - переменная облачность 765 767 +0.5 94% -0.5° более 2.5 км - - - -
02:00 +0.9° В 4 - 20 км - переменная облачность 764 767 +0.3 93% -0.1° 300 м - - - -
Понедельник, 13 Августа
Время местн. Темп Ветер Видим Явления Облачность нижн/средн/верх Атм. давл. Влжн Точка росы ВНГО R Сост. почвы Tg s
Напр Скр Прв ур.ст ур.м изм
23:00 -0.9° В,Ю-В 3 7 20 км - переменная облачность 764 766 +0.9 94% -1.8° 300 м - - - -
20:00 +3° В,Ю-В 5 - 20 км - переменная облачность 763 765 +0.5 84% +0.5° 300 м 0 - - -
17:00 +3.2° В 6 11 20 км - переменная облачность 763 765 +0.3 85% +0.9° 300 м - - - -
14:00 +4.1° В 9 12 20 км - переменная облачность 762 764 +0.3 78% +0.7° 300 м - - - -
11:00 +2.4° В 10 12 20 км - переменная облачность 762 764 +0.3 84% 300 м - - - -
08:00 +1.8° В 6 - 20 км - переменная облачность 762 764 +0.2 85% -0.5° 300 м 0 Влажная (без луж) - -
05:00 -1.1° В 5 9 20 км - переменная облачность 762 764 +0.4 92% -2.3° более 2.5 км - - - -
02:00 -1.3° В 6 - 4 км дымка переменная облачность 761 763 +0.2 96% -1.8° 300 м - - - -
Воскресенье, 12 Августа
Время местн. Темп Ветер Видим Явления Облачность нижн/средн/верх Атм. давл. Влжн Точка росы ВНГО R Сост. почвы Tg s
Напр Скр Прв ур.ст ур.м изм
23:00 -1.1° В 6 13 4 км дымка облачно с прояснениями 761 763 +0.4 96% -1.7° 300 м - - - -
20:00 -0.4° В 8 13 4 км дымка преимущественно облачно 761 763 +0.3 94% -1.2° 300 м 0 - - -
17:00 +1.6° В 11 14 20 км - облачно с прояснениями 760 762 -0.5 88% -0.2° 300 м - - - -
14:00 +2° В 11 14 20 км - облачно с прояснениями 761 763 -0.7 85% -0.2° 300 м - - - -
11:00 +1.5° В 10 13 10 км - облачно с прояснениями 761 764 -0.2 88% -0.2° 300 м - - - -
08:00 -0.1° В 7 11 1 км дымка облачно с прояснениями 762 764 -0.1 99% -0.3° 300 м 0 Влажная (без луж) - -
05:00 +0.2° В 5 - 20 км - переменная облачность 762 764 -0.2 95% -0.5° 300 м - - - -
02:00 -1.5° Ю-В 3 - 20 км - переменная облачность 762 764 -0.1 93% -2.5° 1 км - - - -
Суббота, 11 Августа
Время местн. Темп Ветер Видим Явления Облачность нижн/средн/верх Атм. давл. Влжн Точка росы ВНГО R Сост. почвы Tg s
Напр Скр Прв ур.ст ур.м изм
23:00 -0.4° Ю-В 4 - 20 км - облачно с прояснениями 762 764 -0.2 90% -1.9° 1 км - - - -
20:00 +2.5° В 4 10 20 км - переменная облачность 762 764 - 82% -0.3° 300 м 0 - - -
17:00 +2.4° В 7 - 20 км - облачно с прояснениями 762 764 -0.4 87% +0.4° 300 м - - - -